Impacts METAR Board
IDs:

KPDX - Portland Intl Arpt, OR, US

Updated at: 1200 UTC 16 Sep 2019
Potential Impact None Slight Moderate High
Time 16/00Z 16/01Z 16/02Z 16/03Z 16/04Z 16/05Z 16/06Z 16/07Z 16/08Z 16/09Z 16/10Z 16/11Z 16/12Z
Temp61 61 60 60 60 59 59 58 59 59 59 59 58
Dewpt54 54 55 55 55 55 55 55 55 55 55 55 54
Altim29.79 29.79 29.79 29.79 29.79 29.80 29.80 29.80 29.80 29.80 29.80 29.80 29.80
VIS10 9 10 10 10 10 10 10 10 10 10 10 10
CIG55 47 65 90 14 16 28 25 16 17 23 25 27
CoverOVCOVCBKNBKNOVCOVCOVCBKNOVCOVCOVCOVCOVC
FltCatVFRVFRVFRVFRMVFRMVFRMVFRMVFRMVFRMVFRMVFRMVFRMVFR
WX-----RA-------RA------------
WDir180240190170170180200190180170190190210
WSpd6 7 4 4 5 3 3 4 4 5 5 7 6
WGst-- -- -- -- -- -- -- -- -- -- -- -- --
Raw hourly METARs
KPDX 152353Z 18006KT 10SM FEW025 BKN055 OVC085 16/12 A2979 RMK AO2 SLP086 60028 T01610122 10161 20156 55002
KPDX 160053Z 24007KT 9SM FEW018 BKN047 OVC065 16/12 A2979 RMK AO2 SLP087 T01610122
KPDX 160153Z 19004KT 10SM -RA SCT032 BKN065 BKN080 16/13 A2979 RMK AO2 RAB0054E23B46 SLP088 P0002 T01560128
KPDX 160253Z 17004KT 10SM FEW032 SCT065 BKN090 16/13 A2979 RMK AO2 RAE0155B15E29 SLP086 P0000 60002 T01560128 50000
KPDX 160353Z 17005KT 10SM BKN014 OVC065 16/13 A2979 RMK AO2 SLP088 T01560128
KPDX 160453Z 18003KT 10SM BKN016 BKN044 OVC055 15/13 A2980 RMK AO2 SLP091 T01500128
KPDX 160553Z 20003KT 10SM -RA SCT016 BKN028 OVC065 15/13 A2980 RMK AO2 RAB51 SLP091 P0000 60002 T01500128 10161 20150 50005
KPDX 160653Z 19004KT 10SM BKN025 BKN043 BKN095 14/13 A2980 RMK AO2 RAE37 SLP091 P0000 T01440128
KPDX 160753Z 18004KT 10SM BKN016 OVC043 15/13 A2980 RMK AO2 SLP090 T01500128 401830144
KPDX 160853Z 17005KT 10SM OVC017 15/13 A2980 RMK AO2 SLP091 60000 T01500128 55000
KPDX 160953Z 19005KT 10SM FEW010 OVC023 15/13 A2980 RMK AO2 SLP090 T01500128
KPDX 161053Z 19007KT 10SM FEW010 OVC025 15/13 A2980 RMK AO2 SLP089 T01500128
KPDX 161153Z 21006KT 10SM FEW010 BKN027 OVC040 14/12 A2980 RMK AO2 SLP090 60000 70078 T01440122 10150 20144 55001



Page loaded:  12:18 UTC  |   05:18 AM Pacific  |   06:18 AM Mountain  |   07:18 AM Central  |   08:18 AM Eastern

 

ADVISORIES

FORECASTS

FORECASTS

OBSERVATIONS

USER TOOLS

ABOUT US